Time;durP1;ratioP1;P1;durP2;ratioP2;P2;SDS_P1;SDS_P2;PMS_P1;PMS_P2;Temp;Humidity;BMP_temperature;BMP_pressure;BME280_temperature;BME280_humidity;BME280_pressure;Samples;Min_cycle;Max_cycle;Signal;HPM_P1;HPM_P2
2022/03/14 00:01:06;;;;;;;0.60;0.20;;;10.80;99.90;;;;;;5036219;28;20838;-75
2022/03/14 00:03:41;;;;;;;0.60;0.10;;;10.70;99.90;;;;;;5035806;28;20448;-75
2022/03/14 00:06:10;;;;;;;0.60;0.10;;;10.70;99.90;;;;;;5035772;28;20481;-74
2022/03/14 00:08:41;;;;;;;0.60;0.10;;;10.70;99.90;;;;;;5036389;28;20443;-74
2022/03/14 00:11:10;;;;;;;0.60;0.10;;;10.70;99.90;;;;;;5036011;28;20483;-74
2022/03/14 00:13:40;;;;;;;0.60;0.17;;;10.90;99.90;;;;;;5034923;28;20454;-75
2022/03/14 00:16:09;;;;;;;0.60;0.10;;;10.80;99.90;;;;;;5043170;28;20513;-75
2022/03/14 00:18:41;;;;;;;0.60;0.20;;;10.70;99.90;;;;;;5035768;28;20443;-75
2022/03/14 00:21:10;;;;;;;0.60;0.10;;;10.70;99.90;;;;;;5033811;28;20453;-75
2022/03/14 00:23:38;;;;;;;1.40;0.67;;;10.70;99.90;;;;;;5036447;28;20454;-75
2022/03/14 00:26:07;;;;;;;0.60;0.20;;;11.60;99.90;;;;;;5049987;28;20461;-75
2022/03/14 00:28:35;;;;;;;0.60;0.10;;;10.60;99.90;;;;;;5056152;28;20438;-74
2022/03/14 00:31:03;;;;;;;0.60;0.10;;;10.60;99.90;;;;;;5056612;28;20446;-74
2022/03/14 00:33:32;;;;;;;0.60;0.10;;;10.60;99.90;;;;;;5063044;28;20525;-74
2022/03/14 00:36:00;;;;;;;0.80;0.60;;;;;;;;;;5051992;28;20524;-73
2022/03/14 00:38:28;;;;;;;1.77;1.60;;;10.70;99.90;;;;;;5044325;28;20439;-74
2022/03/14 00:40:57;;;;;;;0.60;0.10;;;10.70;99.90;;;;;;5036053;28;20494;-74
2022/03/14 00:43:24;;;;;;;0.60;0.10;;;10.70;99.90;;;;;;5036090;28;20523;-73
2022/03/14 00:45:52;;;;;;;0.60;0.10;;;10.70;99.90;;;;;;5035428;28;20848;-74
2022/03/14 00:48:20;;;;;;;0.60;0.10;;;10.80;99.90;;;;;;5035161;28;20451;-75
2022/03/14 00:50:50;;;;;;;4.57;4.27;;;10.80;99.90;;;;;;5035276;28;20455;-75
2022/03/14 00:53:18;;;;;;;0.70;0.40;;;10.80;99.90;;;;;;5034983;28;20479;-74
2022/03/14 00:55:46;;;;;;;5.70;2.27;;;10.70;99.90;;;;;;5034572;28;20476;-76
2022/03/14 00:58:14;;;;;;;0.60;0.10;;;10.70;99.90;;;;;;5034394;28;20455;-74
2022/03/14 01:00:43;;;;;;;0.60;0.20;;;10.70;99.90;;;;;;5036471;28;20447;-73
2022/03/14 01:03:11;;;;;;;0.60;0.10;;;10.70;99.90;;;;;;5034988;28;20506;-74
2022/03/14 01:05:41;;;;;;;0.60;0.10;;;10.60;99.90;;;;;;5034902;28;20499;-74
2022/03/14 01:08:10;;;;;;;0.60;0.10;;;10.60;99.90;;;;;;5035038;28;20466;-74
2022/03/14 01:10:38;;;;;;;0.60;0.10;;;10.60;99.90;;;;;;5035314;28;20443;-74
2022/03/14 01:13:06;;;;;;;0.60;0.10;;;10.60;99.90;;;;;;5035132;28;20514;-74
2022/03/14 01:15:35;;;;;;;0.90;0.80;;;10.60;99.90;;;;;;5036127;28;20471;-73
2022/03/14 01:18:04;;;;;;;0.60;0.10;;;10.60;99.90;;;;;;5038238;28;20837;-74
2022/03/14 01:20:32;;;;;;;0.60;0.10;;;10.60;99.90;;;;;;5034029;28;20461;-75
2022/03/14 01:23:01;;;;;;;0.80;0.73;;;10.60;99.90;;;;;;5034460;28;20448;-74
2022/03/14 01:25:30;;;;;;;5.90;5.60;;;10.50;99.90;;;;;;5042054;28;20466;-74
2022/03/14 01:27:58;;;;;;;0.60;0.10;;;10.50;99.90;;;;;;5043741;28;20447;-74
2022/03/14 01:30:26;;;;;;;0.70;0.50;;;10.60;99.90;;;;;;5034533;28;20542;-74
2022/03/14 01:32:53;;;;;;;0.60;0.10;;;10.50;99.90;;;;;;5034107;28;20566;-75
2022/03/14 01:35:22;;;;;;;0.60;0.10;;;10.50;99.90;;;;;;5034471;28;20475;-74
2022/03/14 01:37:50;;;;;;;0.60;0.13;;;10.40;99.90;;;;;;5033988;28;20463;-74
2022/03/14 01:40:18;;;;;;;0.60;0.10;;;10.40;99.90;;;;;;5033838;28;20459;-75
2022/03/14 01:42:48;;;;;;;0.83;0.57;;;10.40;99.90;;;;;;5034214;28;20443;-74
2022/03/14 01:45:16;;;;;;;0.60;0.10;;;10.40;99.90;;;;;;5033913;28;20474;-74
2022/03/14 01:47:45;;;;;;;1.07;0.73;;;10.40;99.90;;;;;;5033899;28;20957;-74
2022/03/14 01:50:14;;;;;;;0.60;0.10;;;10.40;99.90;;;;;;5034018;28;20451;-75
2022/03/14 01:52:42;;;;;;;0.60;0.10;;;10.40;99.90;;;;;;5033500;28;20499;-75
2022/03/14 01:55:12;;;;;;;0.60;0.10;;;10.50;99.90;;;;;;5033807;28;20548;-75
2022/03/14 01:57:40;;;;;;;0.60;0.10;;;10.50;99.90;;;;;;5032990;28;20858;-75
2022/03/14 02:00:12;;;;;;;0.60;0.10;;;10.50;99.90;;;;;;5033422;28;20481;-75
2022/03/14 02:02:40;;;;;;;0.60;0.10;;;10.60;99.90;;;;;;5033903;28;20443;-75
2022/03/14 02:05:08;;;;;;;0.60;0.10;;;10.70;99.90;;;;;;5033528;28;20468;-75
2022/03/14 02:07:36;;;;;;;0.60;0.10;;;10.70;99.90;;;;;;5032746;28;20451;-74
2022/03/14 02:10:05;;;;;;;0.60;0.10;;;10.70;99.90;;;;;;5033328;28;20439;-74
2022/03/14 02:12:33;;;;;;;0.60;0.10;;;10.70;99.90;;;;;;5033354;28;20475;-74
2022/03/14 02:15:01;;;;;;;0.60;0.20;;;10.70;99.90;;;;;;5031436;28;20463;-74
2022/03/14 02:17:30;;;;;;;0.60;0.10;;;10.60;99.90;;;;;;5037651;28;20446;-75
2022/03/14 02:20:01;;;;;;;0.60;0.10;;;10.60;99.90;;;;;;5053113;28;20821;-75
2022/03/14 02:22:29;;;;;;;0.60;0.10;;;10.60;99.90;;;;;;5052880;28;21031;-75
2022/03/14 02:24:57;;;;;;;0.60;0.10;;;10.60;99.90;;;;;;5048147;28;20439;-74
2022/03/14 02:27:25;;;;;;;0.60;0.10;;;10.60;99.90;;;;;;5032529;28;20462;-74
2022/03/14 02:29:53;;;;;;;0.60;0.10;;;10.60;99.90;;;;;;5033263;28;20498;-74
2022/03/14 02:32:21;;;;;;;0.60;0.10;;;10.50;99.90;;;;;;5033244;28;20553;-74
2022/03/14 02:34:49;;;;;;;0.90;0.60;;;10.60;99.90;;;;;;5032909;28;20452;-74
2022/03/14 02:37:18;;;;;;;0.80;0.40;;;10.60;99.90;;;;;;5033026;28;20455;-75
2022/03/14 02:39:47;;;;;;;4.30;4.00;;;10.60;99.90;;;;;;5032764;28;20857;-75
2022/03/14 02:42:15;;;;;;;3.30;1.40;;;10.60;99.90;;;;;;5032739;28;20453;-75
2022/03/14 02:44:45;;;;;;;0.60;0.20;;;;;;;;;;5032926;28;20526;-74
2022/03/14 02:47:13;;;;;;;0.77;0.40;;;10.60;99.90;;;;;;5032745;28;20457;-74
2022/03/14 02:49:41;;;;;;;0.60;0.10;;;10.60;99.90;;;;;;5032718;28;20443;-74
2022/03/14 02:52:09;;;;;;;0.60;0.10;;;10.60;99.90;;;;;;5031980;28;20451;-74
2022/03/14 02:54:40;;;;;;;0.60;0.10;;;11.70;99.90;;;;;;5032469;28;20439;-74
2022/03/14 02:57:09;;;;;;;1.00;0.57;;;10.60;99.90;;;;;;5033708;28;20471;-74
2022/03/14 02:59:37;;;;;;;0.60;0.20;;;10.50;99.90;;;;;;5033625;28;20443;-75
2022/03/14 03:02:06;;;;;;;0.60;0.10;;;10.50;99.90;;;;;;5033500;28;20447;-74
2022/03/14 03:04:34;;;;;;;0.60;0.10;;;10.60;99.90;;;;;;5033153;28;21004;-75
2022/03/14 03:07:02;;;;;;;3.70;2.87;;;10.60;99.90;;;;;;5032000;28;20482;-75
2022/03/14 03:09:30;;;;;;;1.57;1.47;;;10.60;99.90;;;;;;5033621;28;20443;-74
2022/03/14 03:12:02;;;;;;;0.60;0.10;;;;;;;;;;5033520;28;20829;-74
2022/03/14 03:14:30;;;;;;;0.90;0.67;;;10.50;99.90;;;;;;5034873;28;20491;-74
2022/03/14 03:16:59;;;;;;;3.70;3.37;;;10.50;99.90;;;;;;5034679;28;20483;-74
2022/03/14 03:19:27;;;;;;;0.60;0.27;;;10.40;99.90;;;;;;5031988;28;20454;-74
2022/03/14 03:21:55;;;;;;;6.97;1.43;;;10.40;99.90;;;;;;5032301;28;20558;-75
2022/03/14 03:24:23;;;;;;;0.90;0.40;;;10.30;99.90;;;;;;5032538;28;20435;-74
2022/03/14 03:26:51;;;;;;;1.50;0.90;;;10.30;99.90;;;;;;5051970;28;20469;-75
2022/03/14 03:29:21;;;;;;;0.60;0.40;;;10.30;99.90;;;;;;5052385;28;20446;-74
2022/03/14 03:31:50;;;;;;;5.70;1.43;;;10.40;1.00;;;;;;5053133;28;20442;-74
2022/03/14 03:34:18;;;;;;;2.10;0.60;;;10.40;1.00;;;;;;5033182;28;20562;-74
2022/03/14 03:36:46;;;;;;;0.70;0.27;;;10.30;1.00;;;;;;5032144;28;20464;-72
2022/03/14 03:39:14;;;;;;;1.23;1.13;;;10.40;1.00;;;;;;5029066;28;20458;-73
2022/03/14 03:41:42;;;;;;;3.47;1.23;;;10.40;1.00;;;;;;5031940;28;20451;-73
2022/03/14 03:44:10;;;;;;;0.87;0.40;;;10.40;1.00;;;;;;5031463;28;20439;-74
2022/03/14 03:46:39;;;;;;;1.07;0.37;;;10.50;1.00;;;;;;5066644;22;20497;-75
2022/03/14 03:49:07;;;;;;;2.40;1.33;;;10.40;1.00;;;;;;5055842;28;20441;-75
2022/03/14 03:51:35;;;;;;;0.93;0.73;;;10.30;1.00;;;;;;5054950;28;20443;-75
2022/03/14 03:54:03;;;;;;;0.90;0.30;;;10.20;1.00;;;;;;5054383;28;20478;-75
2022/03/14 03:56:32;;;;;;;0.60;0.10;;;10.20;1.00;;;;;;5066752;28;20469;-73
2022/03/14 03:59:00;;;;;;;0.97;0.40;;;10.20;1.00;;;;;;5075378;28;20466;-76
2022/03/14 04:01:29;;;;;;;0.77;0.50;;;10.20;1.00;;;;;;5074990;28;20611;-75
2022/03/14 04:03:59;;;;;;;1.10;0.30;;;10.20;1.00;;;;;;5074771;28;20503;-75
2022/03/14 04:06:29;;;;;;;1.23;1.13;;;10.10;1.00;;;;;;5073152;28;20508;-74
2022/03/14 04:08:58;;;;;;;1.37;0.97;;;10.10;1.00;;;;;;5072328;28;20454;-75
2022/03/14 04:11:27;;;;;;;1.47;0.93;;;10.10;1.00;;;;;;5072239;28;20453;-75
2022/03/14 04:13:57;;;;;;;0.60;0.40;;;10.00;1.00;;;;;;5072661;28;20559;-74
2022/03/14 04:16:26;;;;;;;0.70;0.30;;;9.90;1.00;;;;;;5073575;28;21259;-76
2022/03/14 04:18:54;;;;;;;0.60;0.10;;;9.90;1.00;;;;;;5075565;28;20460;-74
2022/03/14 04:21:24;;;;;;;1.00;0.57;;;9.90;1.00;;;;;;5074966;28;20935;-75
2022/03/14 04:23:51;;;;;;;0.73;0.37;;;9.90;1.00;;;;;;5075520;28;20532;-74
2022/03/14 04:26:19;;;;;;;0.60;0.17;;;9.90;1.00;;;;;;5075302;28;20456;-76
2022/03/14 04:28:48;;;;;;;0.77;0.70;;;9.80;1.00;;;;;;5075113;28;20635;-76
2022/03/14 04:31:16;;;;;;;0.63;0.20;;;9.70;1.00;;;;;;5075673;28;20491;-75
2022/03/14 04:33:44;;;;;;;0.70;0.40;;;9.60;1.00;;;;;;5078349;28;20481;-75
2022/03/14 04:36:13;;;;;;;3.00;1.90;;;9.60;1.00;;;;;;5079273;28;20467;-75
2022/03/14 04:38:42;;;;;;;0.60;0.10;;;9.50;1.00;;;;;;5080544;28;20465;-74
2022/03/14 04:41:13;;;;;;;0.60;0.10;;;9.40;1.00;;;;;;5077135;28;20456;-75
2022/03/14 04:43:41;;;;;;;0.97;0.40;;;9.50;1.00;;;;;;5074624;28;20978;-75
2022/03/14 04:46:09;;;;;;;0.80;0.50;;;9.40;1.00;;;;;;5078113;28;20461;-74
2022/03/14 04:48:37;;;;;;;0.80;0.60;;;9.40;1.00;;;;;;5080898;28;20488;-75
2022/03/14 04:51:05;;;;;;;0.60;0.10;;;9.40;1.00;;;;;;5079511;28;21067;-73
2022/03/14 04:53:33;;;;;;;0.70;0.37;;;9.40;1.00;;;;;;5078003;28;20440;-75
2022/03/14 04:56:02;;;;;;;1.27;1.00;;;9.30;1.00;;;;;;5077775;28;20853;-74
2022/03/14 04:58:30;;;;;;;0.70;0.60;;;9.40;1.00;;;;;;5077384;28;20544;-76
2022/03/14 05:00:58;;;;;;;5.43;1.43;;;9.30;1.00;;;;;;5078678;28;20445;-74
2022/03/14 05:03:27;;;;;;;4.10;0.70;;;9.40;1.00;;;;;;5077782;28;20524;-75
2022/03/14 05:05:55;;;;;;;0.60;0.10;;;9.40;1.00;;;;;;5076881;28;20516;-75
2022/03/14 05:08:23;;;;;;;1.07;0.83;;;9.40;1.00;;;;;;5077701;28;20441;-75
2022/03/14 05:10:51;;;;;;;0.60;0.10;;;9.40;1.00;;;;;;5077735;28;20457;-75
2022/03/14 05:13:21;;;;;;;0.60;0.20;;;9.40;1.00;;;;;;5077522;28;20434;-77
2022/03/14 05:15:49;;;;;;;1.63;0.60;;;9.40;1.00;;;;;;5076693;28;20549;-76
2022/03/14 05:18:17;;;;;;;0.60;0.10;;;9.40;1.00;;;;;;5076306;28;20445;-74
2022/03/14 05:20:45;;;;;;;0.60;0.10;;;9.30;1.00;;;;;;5077823;28;20832;-73
2022/03/14 05:23:13;;;;;;;0.60;0.10;;;9.40;1.00;;;;;;5079625;28;20460;-75
2022/03/14 05:25:41;;;;;;;0.60;0.20;;;9.50;1.00;;;;;;5067296;28;20991;-76
2022/03/14 05:28:09;;;;;;;0.60;0.10;;;9.50;1.00;;;;;;5074203;28;20450;-74
2022/03/14 05:30:38;;;;;;;0.60;0.27;;;9.50;1.00;;;;;;5074238;28;20489;-75
2022/03/14 05:33:06;;;;;;;0.60;0.20;;;9.50;1.00;;;;;;5073982;28;20476;-75
2022/03/14 05:35:34;;;;;;;0.60;0.10;;;9.50;1.00;;;;;;5074236;28;20481;-75
2022/03/14 05:38:02;;;;;;;0.60;0.10;;;9.50;1.00;;;;;;5073943;28;20445;-74
2022/03/14 05:40:30;;;;;;;0.60;0.30;;;9.50;1.00;;;;;;5074357;28;20795;-76
2022/03/14 05:42:59;;;;;;;0.60;0.10;;;9.60;1.00;;;;;;5074122;28;20446;-73
2022/03/14 05:45:27;;;;;;;0.60;0.10;;;9.50;1.00;;;;;;5074574;28;20473;-75
2022/03/14 05:47:56;;;;;;;0.60;0.30;;;9.50;1.00;;;;;;5076056;28;20443;-73
2022/03/14 05:50:24;;;;;;;0.60;0.10;;;9.60;1.00;;;;;;5075782;28;20468;-76
2022/03/14 05:52:52;;;;;;;0.60;0.10;;;9.60;1.00;;;;;;5079294;28;20451;-75
2022/03/14 05:55:20;;;;;;;0.60;0.10;;;9.50;1.00;;;;;;5079691;28;20813;-75
2022/03/14 05:57:49;;;;;;;0.57;0.10;;;9.60;1.00;;;;;;5085407;28;20441;-74
2022/03/14 06:00:23;;;;;;;0.60;0.10;;;9.60;1.00;;;;;;5076303;28;20437;-76
2022/03/14 06:02:52;;;;;;;0.60;0.10;;;9.60;1.00;;;;;;5075357;28;20867;-74
2022/03/14 06:05:23;;;;;;;0.60;0.10;;;9.60;1.00;;;;;;5075501;28;20457;-75
2022/03/14 06:07:51;;;;;;;0.60;0.10;;;9.60;1.00;;;;;;5076235;28;20505;-75
2022/03/14 06:10:19;;;;;;;0.60;0.10;;;9.60;1.00;;;;;;5078500;28;20473;-75
2022/03/14 06:12:47;;;;;;;0.60;0.10;;;9.60;1.00;;;;;;5081802;28;20555;-73
2022/03/14 06:15:16;;;;;;;0.60;0.10;;;9.50;1.00;;;;;;5080850;28;20497;-73
2022/03/14 06:17:45;;;;;;;0.60;0.10;;;9.50;1.00;;;;;;5075143;28;20457;-76
2022/03/14 06:20:15;;;;;;;0.60;0.10;;;9.50;1.00;;;;;;5075167;28;20463;-75
2022/03/14 06:22:46;;;;;;;0.60;0.10;;;9.40;1.00;;;;;;5075646;28;20537;-76
2022/03/14 06:25:17;;;;;;;0.60;0.10;;;9.40;1.00;;;;;;5073708;28;20580;-75
2022/03/14 06:27:45;;;;;;;1.43;1.33;;;9.40;1.00;;;;;;5074011;28;20475;-74
2022/03/14 06:30:14;;;;;;;0.60;0.10;;;9.40;1.00;;;;;;5074590;28;20744;-75
2022/03/14 06:32:44;;;;;;;0.60;0.10;;;9.50;1.00;;;;;;5071801;28;20528;-75
2022/03/14 06:35:14;;;;;;;0.60;0.10;;;9.50;1.00;;;;;;5074803;28;20477;-74
2022/03/14 06:37:44;;;;;;;0.60;0.10;;;9.50;1.00;;;;;;5074531;28;20472;-73
2022/03/14 06:40:14;;;;;;;0.60;0.10;;;9.50;1.00;;;;;;5074317;28;20441;-75
2022/03/14 06:42:48;;;;;;;0.60;0.30;;;9.50;1.00;;;;;;5076339;28;20453;-75
2022/03/14 06:45:20;;;;;;;0.70;0.40;;;9.40;1.00;;;;;;5076287;28;20452;-75
2022/03/14 06:47:48;;;;;;;0.60;0.20;;;9.40;1.00;;;;;;5074744;28;20430;-74
2022/03/14 06:50:16;;;;;;;2.70;1.03;;;9.40;1.00;;;;;;5076156;28;20551;-75
2022/03/14 06:52:46;;;;;;;0.60;0.10;;;9.40;1.00;;;;;;5074586;28;20922;-74
2022/03/14 06:55:14;;;;;;;3.90;3.67;;;9.40;1.00;;;;;;5074836;28;20489;-76
2022/03/14 06:57:42;;;;;;;2.00;0.50;;;9.40;1.00;;;;;;5075917;28;20468;-75
2022/03/14 07:00:11;;;;;;;0.60;0.27;;;9.40;1.00;;;;;;5066593;28;20462;-74
2022/03/14 07:02:40;;;;;;;0.60;0.10;;;9.30;1.00;;;;;;5080982;28;20531;-75
2022/03/14 07:05:13;;;;;;;0.90;0.50;;;9.30;1.00;;;;;;5088914;28;20452;-74
2022/03/14 07:07:41;;;;;;;8.40;0.90;;;9.30;1.00;;;;;;5093519;28;20470;-73
2022/03/14 07:10:11;;;;;;;0.60;0.10;;;9.30;1.00;;;;;;5086138;28;20437;-75
2022/03/14 07:12:44;;;;;;;0.60;0.20;;;9.40;1.00;;;;;;5073771;28;21030;-75
2022/03/14 07:15:13;;;;;;;0.60;0.10;;;9.40;1.00;;;;;;5073588;28;20477;-74
2022/03/14 07:17:42;;;;;;;0.60;0.20;;;9.40;1.00;;;;;;5073271;28;20449;-73
2022/03/14 07:20:14;;;;;;;0.57;0.20;;;9.50;1.00;;;;;;5071947;28;20438;-71
2022/03/14 07:22:53;;;;;;;0.60;0.10;;;9.60;1.00;;;;;;5053619;28;21027;-74
2022/03/14 07:25:26;;;;;;;0.60;0.10;;;9.60;1.00;;;;;;5052626;28;20520;-73
2022/03/14 07:27:56;;;;;;;0.60;0.10;;;9.60;1.00;;;;;;5053221;28;20477;-73
2022/03/14 07:30:24;;;;;;;0.60;0.10;;;9.60;1.00;;;;;;5052628;28;20442;-73
2022/03/14 07:32:52;;;;;;;0.60;0.20;;;9.60;1.00;;;;;;5053328;28;20838;-73
2022/03/14 07:35:21;;;;;;;0.60;0.10;;;9.60;1.00;;;;;;5054550;28;20482;-73
2022/03/14 07:37:49;;;;;;;0.63;0.30;;;9.60;1.00;;;;;;5058416;28;20481;-74
2022/03/14 07:40:18;;;;;;;0.60;0.10;;;9.60;1.00;;;;;;5059531;28;20446;-72
2022/03/14 07:42:54;;;;;;;1.90;0.90;;;9.60;1.00;;;;;;5054017;28;20897;-75
2022/03/14 07:45:24;;;;;;;0.60;0.10;;;9.60;1.00;;;;;;5055149;28;20545;-74
2022/03/14 07:47:53;;;;;;;0.60;0.10;;;9.60;1.00;;;;;;5054286;28;20449;-73
2022/03/14 07:50:22;;;;;;;1.07;0.20;;;9.50;1.00;;;;;;5054912;28;20556;-74
2022/03/14 07:52:50;;;;;;;0.60;0.27;;;9.50;1.00;;;;;;5054685;28;20750;-75
2022/03/14 07:55:18;;;;;;;0.80;0.57;;;9.40;1.00;;;;;;5068592;28;20481;-74
2022/03/14 07:57:47;;;;;;;1.57;0.77;;;9.40;1.00;;;;;;5074006;28;20823;-74
2022/03/14 08:00:19;;;;;;;0.60;0.10;;;9.30;1.00;;;;;;5072896;28;20545;-74
2022/03/14 08:02:49;;;;;;;0.60;0.10;;;9.40;1.00;;;;;;5075052;28;20515;-75
2022/03/14 08:05:24;;;;;;;1.27;0.70;;;9.40;1.00;;;;;;5083142;28;20463;-75
2022/03/14 08:07:53;;;;;;;0.70;0.70;;;9.40;1.00;;;;;;5077377;28;20471;-74
2022/03/14 08:10:21;;;;;;;0.70;0.40;;;9.30;1.00;;;;;;5077190;28;20809;-73
2022/03/14 08:12:51;;;;;;;0.60;0.20;;;9.30;1.00;;;;;;5076633;28;20795;-72
2022/03/14 08:15:25;;;;;;;0.60;0.10;;;9.30;1.00;;;;;;5076505;28;20467;-72
2022/03/14 08:17:54;;;;;;;0.60;0.20;;;9.40;1.00;;;;;;5059281;28;20449;-74
2022/03/14 08:20:25;;;;;;;0.60;0.10;;;9.40;1.00;;;;;;5076303;28;20458;-74
2022/03/14 08:22:53;;;;;;;0.60;0.20;;;9.40;1.00;;;;;;5077307;28;20434;-72
2022/03/14 08:25:22;;;;;;;1.10;0.97;;;9.50;1.00;;;;;;5077085;28;20830;-73
2022/03/14 08:27:50;;;;;;;1.70;1.03;;;9.50;1.00;;;;;;5057521;28;21175;-73
2022/03/14 08:30:19;;;;;;;0.60;0.10;;;;;;;;;;5060481;28;20482;-73
2022/03/14 08:32:48;;;;;;;0.60;0.10;;;9.50;1.00;;;;;;5077498;28;20463;-74
2022/03/14 08:35:19;;;;;;;1.57;0.87;;;9.60;1.00;;;;;;5077290;28;20438;-73
2022/03/14 08:37:49;;;;;;;18.73;2.93;;;9.60;1.00;;;;;;5078791;28;20521;-73
2022/03/14 08:40:20;;;;;;;0.60;0.20;;;9.60;1.00;;;;;;5078654;28;20469;-72
2022/03/14 08:42:49;;;;;;;7.83;1.70;;;9.60;1.00;;;;;;5080661;28;20429;-74
2022/03/14 08:45:17;;;;;;;1.03;0.97;;;9.70;1.00;;;;;;5078672;28;21030;-74
2022/03/14 08:47:45;;;;;;;0.60;0.10;;;9.70;1.00;;;;;;5077472;28;20524;-72
2022/03/14 08:50:16;;;;;;;0.60;0.10;;;9.70;1.00;;;;;;5077838;28;20520;-73
2022/03/14 08:52:45;;;;;;;1.20;0.50;;;9.90;1.00;;;;;;5080300;28;20460;-74
2022/03/14 08:55:14;;;;;;;0.73;0.40;;;10.00;1.00;;;;;;5080118;28;20788;-73
2022/03/14 08:57:42;;;;;;;1.07;0.30;;;9.90;1.00;;;;;;5080789;28;20851;-73
2022/03/14 09:00:12;;;;;;;0.83;0.70;;;9.90;1.00;;;;;;5079846;28;20452;-73
2022/03/14 09:02:40;;;;;;;1.80;1.17;;;9.90;1.00;;;;;;5080065;28;20813;-74
2022/03/14 09:05:08;;;;;;;0.60;0.10;;;9.90;1.00;;;;;;5080824;28;20455;-73
2022/03/14 09:07:38;;;;;;;1.37;1.27;;;9.90;1.00;;;;;;5081673;28;20442;-73
2022/03/14 09:10:07;;;;;;;0.70;0.20;;;10.00;1.00;;;;;;5081306;28;20445;-72
2022/03/14 09:12:37;;;;;;;0.60;0.20;;;;;;;;;;5078072;28;20526;-73
2022/03/14 09:15:07;;;;;;;0.73;0.57;;;10.10;1.00;;;;;;5075475;28;20453;-75
2022/03/14 09:17:35;;;;;;;0.60;0.10;;;10.10;1.00;;;;;;5075573;28;20505;-73
2022/03/14 09:20:05;;;;;;;0.60;0.33;;;10.20;1.00;;;;;;5076395;28;20445;-73
2022/03/14 09:22:35;;;;;;;0.60;0.23;;;10.20;1.00;;;;;;5076439;28;20491;-74
2022/03/14 09:25:09;;;;;;;0.60;0.20;;;12.20;1.00;;;;;;5077269;28;20536;-74
2022/03/14 09:27:37;;;;;;;0.60;0.10;;;10.30;1.00;;;;;;5077252;28;20422;-73
2022/03/14 09:30:06;;;;;;;1.23;0.50;;;10.40;1.00;;;;;;5078647;28;20485;-72
2022/03/14 09:32:34;;;;;;;2.07;1.20;;;10.60;1.00;;;;;;5077579;28;20951;-75
2022/03/14 09:35:03;;;;;;;0.60;0.10;;;10.50;1.00;;;;;;5077111;28;20438;-75
2022/03/14 09:37:32;;;;;;;1.00;0.63;;;10.50;1.00;;;;;;5057512;28;20502;-75
2022/03/14 09:40:01;;;;;;;0.60;0.30;;;10.40;1.00;;;;;;5063347;28;20494;-79
2022/03/14 09:42:30;;;;;;;0.60;0.20;;;10.40;1.00;;;;;;5075089;28;20469;-74
2022/03/14 09:45:02;;;;;;;3.00;0.53;;;10.50;1.00;;;;;;5077528;28;20841;-74
2022/03/14 09:47:31;;;;;;;0.60;0.20;;;10.50;1.00;;;;;;5081173;28;20449;-72
2022/03/14 09:50:00;;;;;;;2.90;1.90;;;10.70;1.00;;;;;;5080423;28;20502;-74
2022/03/14 09:52:29;;;;;;;0.70;0.40;;;10.70;1.00;;;;;;5061785;28;20442;-74
2022/03/14 09:54:58;;;;;;;0.60;0.10;;;10.70;1.00;;;;;;5076383;28;20839;-74
2022/03/14 09:57:31;;;;;;;0.60;0.10;;;11.00;1.00;;;;;;5078931;28;20608;-74
2022/03/14 09:59:59;;;;;;;2.70;0.97;;;11.00;1.00;;;;;;5076851;28;20457;-75
2022/03/14 10:02:28;;;;;;;2.40;1.00;;;11.10;1.00;;;;;;5083970;28;20438;-75
2022/03/14 10:04:58;;;;;;;2.50;1.13;;;11.20;1.00;;;;;;5080403;28;20457;-75
2022/03/14 10:07:26;;;;;;;1.77;0.70;;;11.10;1.00;;;;;;5075413;28;20452;-74
2022/03/14 10:09:56;;;;;;;4.83;0.50;;;11.00;1.00;;;;;;5074257;28;20966;-74
2022/03/14 10:12:24;;;;;;;0.97;0.30;;;11.00;1.00;;;;;;5080723;28;20475;-73
2022/03/14 10:14:53;;;;;;;0.73;0.40;;;11.00;1.00;;;;;;5075616;28;20450;-74
2022/03/14 10:17:21;;;;;;;0.70;0.20;;;11.00;1.00;;;;;;5073932;28;21231;-75
2022/03/14 10:19:55;;;;;;;0.83;0.53;;;10.90;1.00;;;;;;5074963;28;20890;-74
2022/03/14 10:22:23;;;;;;;0.70;0.50;;;10.90;1.00;;;;;;5075239;28;20468;-74
2022/03/14 10:25:03;;;;;;;1.13;0.43;;;11.00;1.00;;;;;;5075128;28;20469;-74
2022/03/14 10:27:34;;;;;;;1.07;0.50;;;11.00;1.00;;;;;;5075181;28;20459;-74
2022/03/14 10:30:05;;;;;;;0.60;0.10;;;11.10;1.00;;;;;;5073915;28;20457;-74
2022/03/14 10:32:40;;;;;;;1.70;0.50;;;11.10;1.00;;;;;;5080670;28;20460;-75
2022/03/14 10:35:08;;;;;;;0.60;0.10;;;11.30;1.00;;;;;;5079433;28;20445;-73
2022/03/14 10:37:37;;;;;;;0.60;0.20;;;11.40;1.00;;;;;;5069667;28;20481;-72
2022/03/14 10:40:08;;;;;;;0.60;0.20;;;11.60;1.00;;;;;;5073839;28;20469;-72
2022/03/14 10:42:41;;;;;;;0.60;0.30;;;11.80;1.00;;;;;;5074340;28;20445;-76
2022/03/14 10:45:15;;;;;;;1.43;1.23;;;11.80;1.00;;;;;;5073117;28;20433;-74
2022/03/14 10:47:52;;;;;;;0.60;0.10;;;11.70;1.00;;;;;;5055133;28;20494;-76
2022/03/14 10:50:33;;;;;;;1.00;0.20;;;11.70;1.00;;;;;;5056291;28;20435;-78
2022/03/14 10:53:06;;;;;;;1.00;0.80;;;11.70;1.00;;;;;;5059856;28;20450;-78
2022/03/14 10:55:39;;;;;;;0.60;0.10;;;11.70;1.00;;;;;;5057000;28;20458;-78
2022/03/14 10:58:18;;;;;;;1.33;1.23;;;11.70;1.00;;;;;;5055819;28;20482;-77
2022/03/14 11:00:52;;;;;;;2.50;0.80;;;11.70;1.00;;;;;;5062373;28;20447;-73
2022/03/14 11:03:28;;;;;;;0.60;0.10;;;11.70;1.00;;;;;;5074497;28;20526;-74
2022/03/14 11:06:02;;;;;;;2.60;1.40;;;11.90;1.00;;;;;;5079411;28;20470;-74
2022/03/14 11:08:35;;;;;;;0.60;0.10;;;12.00;1.00;;;;;;5070820;28;20501;-74
2022/03/14 11:11:06;;;;;;;1.63;0.20;;;12.00;1.00;;;;;;5075147;28;20956;-75
2022/03/14 11:13:38;;;;;;;0.93;0.30;;;12.10;1.00;;;;;;5076739;28;20451;-74
2022/03/14 11:16:12;;;;;;;1.33;0.50;;;12.00;1.00;;;;;;5077377;28;20468;-73
2022/03/14 11:18:42;;;;;;;0.60;0.13;;;12.00;1.00;;;;;;5077318;28;20849;-72
2022/03/14 11:21:12;;;;;;;0.90;0.50;;;12.00;1.00;;;;;;5075310;28;20449;-73
2022/03/14 11:23:41;;;;;;;22.77;1.20;;;12.30;1.00;;;;;;5077611;28;20456;-73
2022/03/14 11:26:11;;;;;;;0.90;0.67;;;12.40;1.00;;;;;;5075986;28;20783;-74
2022/03/14 11:28:41;;;;;;;0.60;0.10;;;12.30;1.00;;;;;;5073597;28;20455;-74
2022/03/14 11:31:10;;;;;;;0.60;0.10;;;12.50;1.00;;;;;;5086658;28;20454;-72
2022/03/14 11:33:48;;;;;;;1.20;0.30;;;12.50;1.00;;;;;;5075259;28;20507;-72
2022/03/14 11:36:22;;;;;;;1.07;0.87;;;12.60;1.00;;;;;;5062197;28;20485;-73
2022/03/14 11:38:50;;;;;;;1.77;0.83;;;12.50;1.00;;;;;;5076986;28;20485;-73
2022/03/14 11:41:19;;;;;;;0.60;0.20;;;12.20;1.00;;;;;;5075707;28;20549;-75
2022/03/14 11:43:48;;;;;;;0.60;0.10;;;12.80;1.00;;;;;;5077402;28;21038;-76
2022/03/14 11:46:37;;;;;;;1.37;0.30;;;12.20;1.00;;;;;;5079169;28;20485;-74
2022/03/14 11:49:14;;;;;;;0.70;0.30;;;12.10;1.00;;;;;;5093438;28;20453;-74
2022/03/14 11:51:42;;;;;;;0.60;0.30;;;12.10;1.00;;;;;;5077887;28;20452;-75
2022/03/14 11:54:12;;;;;;;0.60;0.20;;;12.00;1.00;;;;;;5077409;28;20467;-75
2022/03/14 11:56:52;;;;;;;0.70;0.30;;;12.00;1.00;;;;;;5077782;28;20473;-73
2022/03/14 11:59:27;;;;;;;0.60;0.30;;;12.00;1.00;;;;;;5078447;28;20803;-74
2022/03/14 12:02:00;;;;;;;0.60;0.20;;;12.10;1.00;;;;;;5081686;28;20453;-74
2022/03/14 12:04:30;;;;;;;1.20;1.10;;;12.20;1.00;;;;;;5081130;28;20798;-75
2022/03/14 12:07:12;;;;;;;0.70;0.30;;;12.30;1.00;;;;;;5077861;28;20544;-74
2022/03/14 12:09:46;;;;;;;2.03;0.73;;;12.40;1.00;;;;;;5077626;28;20529;-72
2022/03/14 12:12:26;;;;;;;0.60;0.10;;;12.40;1.00;;;;;;5076946;28;20872;-74
2022/03/14 12:14:56;;;;;;;0.60;0.20;;;12.40;1.00;;;;;;5076974;28;20449;-73
2022/03/14 12:17:29;;;;;;;0.90;0.37;;;12.40;99.90;;;;;;5078440;28;20481;-74
2022/03/14 12:19:59;;;;;;;0.80;0.40;;;12.30;99.90;;;;;;5077188;28;20449;-74
2022/03/14 12:22:45;;;;;;;0.70;0.20;;;12.20;99.90;;;;;;5077986;28;20556;-73
2022/03/14 12:25:39;;;;;;;3.90;2.83;;;12.10;99.90;;;;;;5078567;28;20457;-74
2022/03/14 12:28:30;;;;;;;1.33;0.70;;;12.00;99.90;;;;;;5077504;28;20438;-74
2022/03/14 12:31:09;;;;;;;0.80;0.67;;;11.80;99.90;;;;;;5075992;28;20879;-74
2022/03/14 12:33:40;;;;;;;1.50;0.63;;;11.70;1.00;;;;;;5074409;28;20473;-72
2022/03/14 12:36:32;;;;;;;0.60;0.20;;;11.70;1.00;;;;;;5077047;28;20471;-74
2022/03/14 12:39:22;;;;;;;0.60;0.10;;;11.70;1.00;;;;;;5048366;28;20500;-73
2022/03/14 12:41:51;;;;;;;0.60;0.20;;;11.70;1.00;;;;;;5075997;28;20454;-73
2022/03/14 12:44:20;;;;;;;0.60;0.10;;;;;;;;;;5077732;28;20450;-74
2022/03/14 12:46:51;;;;;;;0.90;0.20;;;11.80;1.00;;;;;;5067980;28;20488;-73
2022/03/14 12:49:50;;;;;;;0.63;0.27;;;12.00;1.00;;;;;;5076147;28;20546;-73
2022/03/14 12:52:19;;;;;;;0.70;0.27;;;12.00;1.00;;;;;;5067681;28;20454;-75
2022/03/14 12:54:50;;;;;;;0.90;0.60;;;12.10;1.00;;;;;;5054562;28;20578;-74
2022/03/14 12:57:28;;;;;;;1.27;1.07;;;12.10;1.00;;;;;;5053844;28;20993;-74
2022/03/14 13:00:01;;;;;;;0.70;0.30;;;12.10;99.90;;;;;;5050397;28;20860;-74
2022/03/14 13:02:30;;;;;;;0.80;0.60;;;12.10;99.90;;;;;;5055655;28;20500;-75
2022/03/14 13:05:04;;;;;;;2.77;2.57;;;11.80;1.00;;;;;;5062644;28;20547;-71
2022/03/14 13:07:36;;;;;;;0.60;0.20;;;11.80;1.00;;;;;;5053747;28;20454;-73
2022/03/14 13:10:12;;;;;;;0.60;0.20;;;11.90;1.00;;;;;;5054929;28;20459;-74
2022/03/14 13:12:53;;;;;;;0.60;0.10;;;12.00;1.00;;;;;;5065119;28;20452;-73
2022/03/14 13:15:24;;;;;;;0.60;0.10;;;12.00;99.90;;;;;;5047428;28;20478;-73